createdAt,value
2022-09-18T00:04:43.862Z,2.20
2022-09-18T00:09:47.365Z,2.80
2022-09-18T00:14:50.577Z,3.30
2022-09-18T00:19:54.942Z,2.90
2022-09-18T00:24:58.806Z,3.00
2022-09-18T00:35:08.395Z,3.20
2022-09-18T00:40:12.253Z,4.00
2022-09-18T00:45:15.653Z,2.80
2022-09-18T00:50:27.577Z,2.70
2022-09-18T00:55:36.312Z,2.70
2022-09-18T01:00:40.185Z,2.40
2022-09-18T01:05:46.977Z,2.20
2022-09-18T01:11:15.177Z,2.80
2022-09-18T01:16:51.158Z,1.90
2022-09-18T01:22:21.874Z,2.80
2022-09-18T01:27:58.854Z,1.90
2022-09-18T01:33:32.631Z,1.60
2022-09-18T01:38:50.227Z,1.60
2022-09-18T01:44:04.517Z,1.90
2022-09-18T01:49:18.666Z,1.40
2022-09-18T01:54:27.592Z,1.20
2022-09-18T01:59:39.273Z,1.50
2022-09-18T02:04:47.510Z,1.30
2022-09-18T02:09:50.849Z,1.00
2022-09-18T02:14:57.689Z,1.10
2022-09-18T02:20:32.661Z,0.90
2022-09-18T02:25:50.928Z,1.40
2022-09-18T02:30:54.392Z,0.70
2022-09-18T02:36:03.691Z,0.70
2022-09-18T02:41:33.557Z,0.50
2022-09-18T02:47:00.484Z,0.50
2022-09-18T02:52:07.998Z,0.70
2022-09-18T02:57:17.137Z,0.50
2022-09-18T03:02:23.099Z,0.50
2022-09-18T03:07:27.199Z,0.40
2022-09-18T03:12:32.105Z,0.50
2022-09-18T03:17:35.399Z,0.20
2022-09-18T03:22:39.203Z,0.40
2022-09-18T03:27:46.613Z,0.40
2022-09-18T03:33:02.027Z,0.30
2022-09-18T03:38:06.279Z,0.50
2022-09-18T03:43:11.766Z,0.40
2022-09-18T03:48:16.084Z,0.20
2022-09-18T03:53:20.245Z,0.20
2022-09-18T03:58:31.787Z,0.30
2022-09-18T04:03:37.856Z,0.50
2022-09-18T04:08:59.837Z,0.30
2022-09-18T04:14:10.244Z,0.40
2022-09-18T04:19:13.982Z,0.50
2022-09-18T04:24:17.584Z,0.40
2022-09-18T04:29:22.062Z,0.50
2022-09-18T04:34:26.088Z,0.50
2022-09-18T04:39:29.474Z,0.60
2022-09-18T04:44:36.106Z,0.70
2022-09-18T04:49:39.384Z,0.50
2022-09-18T04:54:44.113Z,1.20
2022-09-18T04:59:47.593Z,0.50
2022-09-18T05:04:50.982Z,0.50
2022-09-18T05:10:10.801Z,0.60
2022-09-18T05:15:15.036Z,0.50
2022-09-18T05:20:22.310Z,0.70
2022-09-18T05:25:29.227Z,0.50
2022-09-18T05:30:34.337Z,0.70
2022-09-18T05:35:41.108Z,1.00
2022-09-18T05:40:45.311Z,0.90
2022-09-18T05:45:48.692Z,0.50
2022-09-18T05:51:13.207Z,0.60
2022-09-18T05:56:17.254Z,0.80
2022-09-18T06:01:23.926Z,0.70
2022-09-18T06:06:40.048Z,0.60
2022-09-18T06:11:43.332Z,0.60
2022-09-18T06:16:51.558Z,0.90
2022-09-18T06:22:00.109Z,0.50
2022-09-18T06:27:05.152Z,0.40
2022-09-18T06:32:27.005Z,0.70
2022-09-18T06:37:40.159Z,0.70
2022-09-18T06:43:02.142Z,0.90
2022-09-18T06:48:29.895Z,0.80
2022-09-18T06:58:55.871Z,1.00
2022-09-18T07:03:59.789Z,0.80
2022-09-18T07:09:14.947Z,1.00
2022-09-18T07:14:37.555Z,1.00
2022-09-18T07:20:01.061Z,0.90
2022-09-18T07:25:17.022Z,1.60
2022-09-18T07:30:23.877Z,2.10
2022-09-18T07:35:33.858Z,1.90
2022-09-18T07:40:44.612Z,2.00
2022-09-18T07:45:59.645Z,2.00
2022-09-18T07:51:10.590Z,1.90
2022-09-18T07:56:26.599Z,2.10
2022-09-18T08:01:35.451Z,2.00
2022-09-18T08:06:48.458Z,2.60
2022-09-18T08:12:06.113Z,1.20
2022-09-18T08:23:16.563Z,1.40
2022-09-18T08:28:45.281Z,1.10
2022-09-18T08:33:56.499Z,0.80
2022-09-18T08:39:05.432Z,0.50
2022-09-18T08:44:32.635Z,0.50
2022-09-18T08:49:50.980Z,0.70
2022-09-18T08:55:14.530Z,0.40
2022-09-18T09:01:01.240Z,0.50
2022-09-18T09:06:35.559Z,0.60
2022-09-18T09:11:41.454Z,0.50
2022-09-18T09:16:52.817Z,0.60
2022-09-18T09:22:29.016Z,0.50
2022-09-18T09:27:41.819Z,0.50
2022-09-18T09:33:04.641Z,0.40
2022-09-18T09:38:42.015Z,0.80
2022-09-18T09:44:09.759Z,0.80
2022-09-18T09:49:25.923Z,0.70
2022-09-18T09:54:37.406Z,0.50
2022-09-18T10:00:06.383Z,0.90
2022-09-18T10:06:05.062Z,0.90
2022-09-18T10:11:12.776Z,1.00
2022-09-18T10:16:23.599Z,1.20
2022-09-18T10:21:36.279Z,0.90
2022-09-18T10:27:01.013Z,0.80
2022-09-18T10:32:12.008Z,0.70
2022-09-18T10:37:35.420Z,1.00
2022-09-18T10:42:46.566Z,1.50
2022-09-18T10:48:27.679Z,1.40
2022-09-18T10:53:34.324Z,2.00
2022-09-18T10:59:37.645Z,1.90
2022-09-18T11:04:50.371Z,2.10
2022-09-18T11:10:20.800Z,2.50
2022-09-18T11:16:07.591Z,2.30
2022-09-18T11:21:14.156Z,2.00
2022-09-18T11:26:32.876Z,2.00
2022-09-18T11:31:46.318Z,2.20
2022-09-18T11:37:40.173Z,1.90
2022-09-18T11:42:52.057Z,2.20
2022-09-18T11:48:25.010Z,2.10
2022-09-18T11:53:44.068Z,2.40
2022-09-18T11:59:05.663Z,1.90
2022-09-18T12:04:29.011Z,2.50
2022-09-18T12:09:41.603Z,1.70
2022-09-18T12:15:11.051Z,2.10
2022-09-18T12:20:33.072Z,2.50
2022-09-18T12:25:56.573Z,2.20
2022-09-18T12:31:55.887Z,1.70
2022-09-18T12:37:45.813Z,2.00
2022-09-18T12:43:03.866Z,2.50
2022-09-18T12:48:40.678Z,1.80
2022-09-18T12:54:11.502Z,2.70
2022-09-18T12:59:39.464Z,1.80
2022-09-18T13:04:50.634Z,1.40
2022-09-18T13:09:59.666Z,1.70
2022-09-18T13:15:13.696Z,1.60
2022-09-18T13:20:20.260Z,1.50
2022-09-18T13:25:28.622Z,1.60
2022-09-18T13:30:32.239Z,1.30
2022-09-18T13:35:39.849Z,1.30
2022-09-18T13:41:04.825Z,1.00
2022-09-18T13:46:10.609Z,1.30
2022-09-18T13:51:31.528Z,1.30
2022-09-18T13:57:10.596Z,1.30
2022-09-18T14:02:27.334Z,1.10
2022-09-18T14:07:37.891Z,1.30
2022-09-18T14:13:22.601Z,1.90
2022-09-18T14:18:48.497Z,0.80
2022-09-18T14:24:26.735Z,0.90
2022-09-18T14:29:36.853Z,0.90
2022-09-18T14:34:42.974Z,1.00
2022-09-18T14:39:47.083Z,1.10
2022-09-18T14:45:11.296Z,0.80
2022-09-18T14:50:46.963Z,1.20
2022-09-18T14:56:01.824Z,1.00
2022-09-18T15:01:15.237Z,0.90
2022-09-18T15:06:27.168Z,1.30
2022-09-18T15:11:47.010Z,1.10
2022-09-18T15:17:00.830Z,1.00
2022-09-18T15:22:05.970Z,1.30
2022-09-18T15:27:14.994Z,1.00
2022-09-18T15:32:23.869Z,1.00
2022-09-18T15:37:34.856Z,0.90
2022-09-18T15:42:41.483Z,1.10
2022-09-18T15:47:45.312Z,1.70
2022-09-18T15:53:02.010Z,0.80
2022-09-18T15:58:25.238Z,0.60
2022-09-18T16:03:30.623Z,1.50
2022-09-18T16:09:02.681Z,1.10
2022-09-18T16:14:40.675Z,1.00
2022-09-18T16:19:44.754Z,0.70
2022-09-18T16:24:48.610Z,0.80
2022-09-18T16:29:52.182Z,0.80
2022-09-18T16:34:55.688Z,0.90
2022-09-18T16:40:01.541Z,1.00
2022-09-18T16:45:06.459Z,1.10
2022-09-18T16:50:10.094Z,1.80
2022-09-18T16:55:16.498Z,22.80
2022-09-18T17:00:26.404Z,18.00
2022-09-18T17:05:30.418Z,8.20
2022-09-18T17:10:35.892Z,4.90
2022-09-18T17:15:39.279Z,2.10
2022-09-18T17:20:42.659Z,3.20
2022-09-18T17:25:49.662Z,2.40
2022-09-18T17:30:53.775Z,13.50
2022-09-18T17:35:57.214Z,6.50
2022-09-18T17:41:03.388Z,6.00
2022-09-18T17:46:13.296Z,3.00
2022-09-18T17:51:20.586Z,3.40
2022-09-18T17:56:30.315Z,2.40
2022-09-18T18:01:46.221Z,2.40
2022-09-18T18:06:52.802Z,2.70
2022-09-18T18:11:56.834Z,3.50
2022-09-18T18:17:11.139Z,2.80
2022-09-18T18:22:24.078Z,2.60
2022-09-18T18:27:29.234Z,1.60
2022-09-18T18:32:38.392Z,1.50
2022-09-18T18:37:44.988Z,2.20
2022-09-18T18:42:57.077Z,1.80
2022-09-18T18:48:09.833Z,1.70
2022-09-18T18:53:23.413Z,1.80
2022-09-18T18:58:36.868Z,1.80
2022-09-18T19:04:20.844Z,1.90
2022-09-18T19:09:42.712Z,1.30
2022-09-18T19:14:57.879Z,1.50
2022-09-18T19:20:13.673Z,1.60
2022-09-18T19:25:46.470Z,1.20
2022-09-18T19:31:29.065Z,1.30
2022-09-18T19:36:40.410Z,1.30
2022-09-18T19:41:51.822Z,1.30
2022-09-18T19:46:56.353Z,1.40
2022-09-18T19:52:31.348Z,0.90
2022-09-18T19:57:35.759Z,1.30
2022-09-18T20:02:39.276Z,0.80
2022-09-18T20:07:45.070Z,0.80
2022-09-18T20:12:49.735Z,0.60
2022-09-18T20:17:56.911Z,1.90
2022-09-18T20:23:02.339Z,0.80
2022-09-18T20:28:06.111Z,0.50
2022-09-18T20:33:09.457Z,0.80
2022-09-18T20:38:12.999Z,0.70
2022-09-18T20:43:21.772Z,1.10
2022-09-18T20:48:26.979Z,2.00
2022-09-18T20:53:43.126Z,1.00
2022-09-18T20:58:51.868Z,1.00
2022-09-18T21:04:01.131Z,0.90
2022-09-18T21:09:31.073Z,0.90
2022-09-18T21:14:34.325Z,1.30
2022-09-18T21:19:39.101Z,1.00
2022-09-18T21:24:45.017Z,1.00
2022-09-18T21:30:00.464Z,0.80
2022-09-18T21:35:28.471Z,0.80
2022-09-18T21:40:36.236Z,1.00
2022-09-18T21:45:43.290Z,0.80
2022-09-18T21:50:52.423Z,1.20
2022-09-18T21:56:15.595Z,0.90
2022-09-18T22:01:21.484Z,1.00
2022-09-18T22:06:34.825Z,1.10
2022-09-18T22:11:39.011Z,1.20
2022-09-18T22:16:47.370Z,0.70
2022-09-18T22:21:56.247Z,1.30
2022-09-18T22:27:11.086Z,1.20
2022-09-18T22:32:15.808Z,1.40
2022-09-18T22:37:20.592Z,1.40
2022-09-18T22:42:26.339Z,1.40
2022-09-18T22:47:30.845Z,1.20
2022-09-18T22:52:35.299Z,1.10
2022-09-18T22:57:39.018Z,1.10
2022-09-18T23:02:43.161Z,1.40
2022-09-18T23:07:47.218Z,1.70
2022-09-18T23:12:51.195Z,1.20
2022-09-18T23:17:55.761Z,0.90
2022-09-18T23:22:59.756Z,1.60
2022-09-18T23:28:03.053Z,1.10
2022-09-18T23:33:06.528Z,1.10
2022-09-18T23:38:09.774Z,1.30
2022-09-18T23:43:12.991Z,0.90
2022-09-18T23:48:17.104Z,1.10
2022-09-18T23:53:22.958Z,1.30
2022-09-18T23:58:26.119Z,1.10
